CheckWX is a tool to help pilots better visualize weather data.  It is not intended as a substitute for an official pre-flight weather briefing.

14:16:35 UTC

KFIT METAR
Fitchburg Municipal Airport
Fitchburg, Massachusetts, USA
Current

25 mins ago

KFIT 221352Z AUTO 01008KT 10SM OVC009 15/12 A3010 RMK AO2 SLP194 T01500117
Observed
Apr-22 @ 13:52 UTC
Wind
  • 010° at 8 KTS
Visibility
10 SM
Flight Rules
IFR
Cloud Levels
  • Overcast at 900' AGL
Temperature
15°C / 59°F
Dewpoint
12°C / 54°F
Humidity
82%
Altimeter
30.1" Hg
Pressure
1019.32 hPa
Previous

1 hour ago

KFIT 221310Z AUTO 01007KT 10SM OVC009 14/12 A3012 RMK AO2 T01440117
Observed
Apr-22 @ 13:10 UTC
Wind
  • 010° at 7 KTS
Visibility
10 SM
Flight Rules
IFR
Cloud Levels
  • Overcast at 900' AGL
Temperature
14°C / 57°F
Dewpoint
12°C / 54°F
Humidity
88%
Altimeter
30.12" Hg
Pressure
1020.02 hPa
Previous

1 hour ago

KFIT 221252Z AUTO 03007KT 10SM BKN010 BKN037 BKN120 14/11 A3012 RMK AO2 SLP201 T01440111
Observed
Apr-22 @ 12:52 UTC
Wind
  • 030° at 7 KTS
Visibility
10 SM
Flight Rules
MVFR
Cloud Levels
  • Broken at 1,000' AGL
  • Broken at 3,700' AGL
  • Broken at 12,000' AGL
Temperature
14°C / 57°F
Dewpoint
11°C / 52°F
Humidity
82%
Altimeter
30.12" Hg
Pressure
1020.02 hPa